createdAt,value
2022-12-23T00:00:57.930Z,9.30
2022-12-23T00:03:24.968Z,8.75
2022-12-23T00:05:52.103Z,9.50
2022-12-23T00:08:18.978Z,9.13
2022-12-23T00:10:46.070Z,9.13
2022-12-23T00:13:31.450Z,9.05
2022-12-23T00:16:09.792Z,8.82
2022-12-23T00:18:36.755Z,8.20
2022-12-23T00:21:09.315Z,9.13
2022-12-23T00:23:37.729Z,8.65
2022-12-23T00:26:04.726Z,8.80
2022-12-23T00:28:31.592Z,9.02
2022-12-23T00:31:05.478Z,9.35
2022-12-23T00:33:36.469Z,8.57
2022-12-23T00:36:10.652Z,8.35
2022-12-23T00:38:56.044Z,8.73
2022-12-23T00:41:41.803Z,9.07
2022-12-23T00:44:08.637Z,8.75
2022-12-23T00:46:35.470Z,8.70
2022-12-23T00:49:21.172Z,8.73
2022-12-23T00:51:48.109Z,8.82
2022-12-23T00:54:15.069Z,9.50
2022-12-23T00:56:41.977Z,8.93
2022-12-23T00:59:08.824Z,8.88
2022-12-23T01:01:54.598Z,8.40
2022-12-23T01:04:40.536Z,7.75
2022-12-23T01:07:07.539Z,7.82
2022-12-23T01:09:34.544Z,8.15
2022-12-23T01:12:01.440Z,8.13
2022-12-23T01:14:28.592Z,7.82
2022-12-23T01:16:55.487Z,7.60
2022-12-23T01:19:22.364Z,7.60
2022-12-23T01:21:49.243Z,7.72
2022-12-23T01:24:16.108Z,8.00
2022-12-23T01:26:42.949Z,7.68
2022-12-23T01:29:09.838Z,7.95
2022-12-23T01:31:36.743Z,8.48
2022-12-23T01:34:03.641Z,7.82
2022-12-23T01:36:30.576Z,7.95
2022-12-23T01:38:57.436Z,7.22
2022-12-23T01:41:44.948Z,7.88
2022-12-23T01:44:47.524Z,7.40
2022-12-23T01:47:17.295Z,7.40
2022-12-23T01:49:44.176Z,7.35
2022-12-23T01:52:11.037Z,7.40
2022-12-23T01:54:37.931Z,6.93
2022-12-23T01:57:04.766Z,6.93
2022-12-23T01:59:50.375Z,6.93
2022-12-23T02:02:35.811Z,6.63
2022-12-23T02:05:02.763Z,6.65
2022-12-23T02:07:48.532Z,6.72
2022-12-23T02:10:15.589Z,7.05
2022-12-23T02:12:50.599Z,7.10
2022-12-23T02:15:38.926Z,7.10
2022-12-23T02:18:24.543Z,6.75
2022-12-23T02:20:51.370Z,6.30
2022-12-23T02:23:40.376Z,7.07
2022-12-23T02:26:10.277Z,7.28
2022-12-23T02:29:22.826Z,7.28
2022-12-23T02:32:10.076Z,7.20
2022-12-23T02:35:02.279Z,7.32
2022-12-23T02:37:55.082Z,6.97
2022-12-23T02:40:24.586Z,7.10
2022-12-23T02:43:17.503Z,6.95
2022-12-23T02:46:16.862Z,6.82
2022-12-23T02:49:01.542Z,7.00
2022-12-23T02:51:33.691Z,6.72
2022-12-23T02:54:02.574Z,6.85
2022-12-23T02:56:30.655Z,6.80
2022-12-23T02:59:01.288Z,6.80
2022-12-23T03:01:28.299Z,6.50
2022-12-23T03:03:55.176Z,6.10
2022-12-23T03:06:24.407Z,6.63
2022-12-23T03:08:52.754Z,6.75
2022-12-23T03:11:19.649Z,6.10
2022-12-23T03:13:58.643Z,6.13
2022-12-23T03:16:50.038Z,6.05
2022-12-23T03:19:40.317Z,5.45
2022-12-23T03:22:14.863Z,5.40
2022-12-23T03:24:45.237Z,5.35
2022-12-23T03:27:43.161Z,5.13
2022-12-23T03:30:15.036Z,4.50
2022-12-23T03:33:02.915Z,4.78
2022-12-23T03:35:40.965Z,5.05
2022-12-23T03:38:08.099Z,5.10
2022-12-23T03:40:43.215Z,4.60
2022-12-23T03:43:17.539Z,4.43
2022-12-23T03:45:47.817Z,4.60
2022-12-23T03:48:36.048Z,4.30
2022-12-23T03:51:05.708Z,4.55
2022-12-23T03:53:35.154Z,4.00
2022-12-23T03:56:11.821Z,4.35
2022-12-23T03:58:56.359Z,4.03
2022-12-23T04:01:46.001Z,4.37
2022-12-23T04:04:18.123Z,3.83
2022-12-23T04:06:53.315Z,3.92
2022-12-23T04:09:22.298Z,3.90
2022-12-23T04:11:49.303Z,4.10
2022-12-23T04:14:19.829Z,3.95
2022-12-23T04:16:47.076Z,3.72
2022-12-23T04:19:13.940Z,3.72
2022-12-23T04:21:40.826Z,3.60
2022-12-23T04:24:07.939Z,3.45
2022-12-23T04:26:34.784Z,3.50
2022-12-23T04:29:01.689Z,3.40
2022-12-23T04:31:28.596Z,3.85
2022-12-23T04:33:55.537Z,3.55
2022-12-23T04:36:22.451Z,3.50
2022-12-23T04:38:49.302Z,3.70
2022-12-23T04:41:16.120Z,3.40
2022-12-23T04:43:45.440Z,3.35
2022-12-23T04:46:16.287Z,3.88
2022-12-23T04:48:43.176Z,3.75
2022-12-23T04:51:10.018Z,3.55
2022-12-23T04:53:37.305Z,3.53
2022-12-23T04:56:04.388Z,3.55
2022-12-23T04:58:31.338Z,3.60
2022-12-23T05:01:09.249Z,3.47
2022-12-23T05:03:36.846Z,3.03
2022-12-23T05:06:04.267Z,3.38
2022-12-23T05:08:31.245Z,3.53
2022-12-23T05:10:58.095Z,3.35
2022-12-23T05:13:25.058Z,3.33
2022-12-23T05:15:52.697Z,3.30
2022-12-23T05:18:19.871Z,3.28
2022-12-23T05:20:46.772Z,3.17
2022-12-23T05:23:13.697Z,2.85
2022-12-23T05:25:40.559Z,2.90
2022-12-23T05:28:10.392Z,3.08
2022-12-23T05:30:37.294Z,2.67
2022-12-23T05:33:04.201Z,2.80
2022-12-23T05:35:31.187Z,2.80
2022-12-23T05:37:58.475Z,3.03
2022-12-23T05:40:26.697Z,3.20
2022-12-23T05:42:56.175Z,3.05
2022-12-23T05:45:23.208Z,2.60
2022-12-23T05:47:50.054Z,2.35
2022-12-23T05:50:16.971Z,2.78
2022-12-23T05:52:43.895Z,2.40
2022-12-23T05:55:10.830Z,2.70
2022-12-23T05:57:37.673Z,2.35
2022-12-23T06:00:04.874Z,2.38
2022-12-23T06:02:39.366Z,2.47
2022-12-23T06:05:06.771Z,2.55
2022-12-23T06:07:33.589Z,2.75
2022-12-23T06:10:00.412Z,2.45
2022-12-23T06:12:27.316Z,2.60
2022-12-23T06:14:54.183Z,2.47
2022-12-23T06:17:21.039Z,2.67
2022-12-23T06:19:47.937Z,2.80
2022-12-23T06:22:15.039Z,2.42
2022-12-23T06:24:41.917Z,2.55
2022-12-23T06:27:08.828Z,2.65
2022-12-23T06:29:35.662Z,2.60
2022-12-23T06:32:02.620Z,2.40
2022-12-23T06:34:29.588Z,3.00
2022-12-23T06:36:56.407Z,2.60
2022-12-23T06:39:23.426Z,2.65
2022-12-23T06:41:50.311Z,2.40
2022-12-23T06:44:17.190Z,3.05
2022-12-23T06:46:44.120Z,2.90
2022-12-23T06:49:13.441Z,2.80
2022-12-23T06:51:40.849Z,2.92
2022-12-23T06:54:09.567Z,2.65
2022-12-23T06:56:36.481Z,2.95
2022-12-23T06:59:03.334Z,2.50
2022-12-23T07:01:30.235Z,2.70
2022-12-23T07:03:57.541Z,2.60
2022-12-23T07:06:24.443Z,2.60
2022-12-23T07:08:51.308Z,2.50
2022-12-23T07:11:18.675Z,2.80
2022-12-23T07:13:45.907Z,2.40
2022-12-23T07:16:12.812Z,2.58
2022-12-23T07:18:39.805Z,2.58
2022-12-23T07:21:13.400Z,2.40
2022-12-23T07:23:45.035Z,2.47
2022-12-23T07:26:11.969Z,2.70
2022-12-23T07:28:39.774Z,2.30
2022-12-23T07:31:07.105Z,2.70
2022-12-23T07:33:34.021Z,2.28
2022-12-23T07:36:00.913Z,2.35
2022-12-23T07:38:27.825Z,2.47
2022-12-23T07:40:54.675Z,2.25
2022-12-23T07:43:21.537Z,2.40
2022-12-23T07:45:51.357Z,2.20
2022-12-23T07:48:22.730Z,2.00
2022-12-23T07:50:49.638Z,2.20
2022-12-23T07:53:16.472Z,2.30
2022-12-23T07:55:43.356Z,2.33
2022-12-23T07:58:10.266Z,2.50
2022-12-23T08:00:37.157Z,2.17
2022-12-23T08:03:04.055Z,2.35
2022-12-23T08:05:31.450Z,2.30
2022-12-23T08:07:58.425Z,1.85
2022-12-23T08:10:25.260Z,1.90
2022-12-23T08:12:52.174Z,1.98
2022-12-23T08:15:19.045Z,2.05
2022-12-23T08:17:45.912Z,1.85
2022-12-23T08:20:12.856Z,2.10
2022-12-23T08:22:39.756Z,2.20
2022-12-23T08:25:07.031Z,1.90
2022-12-23T08:27:34.667Z,1.80
2022-12-23T08:30:01.501Z,1.73
2022-12-23T08:32:28.476Z,1.75
2022-12-23T08:34:57.529Z,1.80
2022-12-23T08:37:24.875Z,1.70
2022-12-23T08:39:51.772Z,1.75
2022-12-23T08:42:19.808Z,2.03
2022-12-23T08:44:46.706Z,1.77
2022-12-23T08:47:13.601Z,1.80
2022-12-23T08:49:40.656Z,1.98
2022-12-23T08:52:07.589Z,1.70
2022-12-23T08:54:34.438Z,1.70
2022-12-23T08:57:01.311Z,1.75
2022-12-23T08:59:28.127Z,1.88
2022-12-23T09:01:55.134Z,1.88
2022-12-23T09:04:22.100Z,1.70
2022-12-23T09:06:48.939Z,1.80
2022-12-23T09:09:16.244Z,1.90
2022-12-23T09:11:43.202Z,1.92
2022-12-23T09:14:10.562Z,1.70
2022-12-23T09:16:37.896Z,1.88
2022-12-23T09:19:05.024Z,1.73
2022-12-23T09:21:31.908Z,1.60
2022-12-23T09:23:58.930Z,2.00
2022-12-23T09:26:27.407Z,1.90
2022-12-23T09:28:55.256Z,2.20
2022-12-23T09:31:22.774Z,2.20
2022-12-23T09:33:50.685Z,2.08
2022-12-23T09:36:17.603Z,2.10
2022-12-23T09:38:44.493Z,2.13
2022-12-23T09:41:17.285Z,1.92
2022-12-23T09:44:03.034Z,2.20
2022-12-23T09:46:30.145Z,1.88
2022-12-23T09:49:00.029Z,1.95
2022-12-23T09:51:26.935Z,2.13
2022-12-23T09:54:22.756Z,2.50
2022-12-23T09:57:02.718Z,2.35
2022-12-23T09:59:54.317Z,2.10
2022-12-23T10:02:30.411Z,2.10
2022-12-23T10:05:04.836Z,2.20
2022-12-23T10:07:36.185Z,2.13
2022-12-23T10:10:18.419Z,2.10
2022-12-23T10:12:47.262Z,2.05
2022-12-23T10:15:29.183Z,2.13
2022-12-23T10:17:58.044Z,2.00
2022-12-23T10:20:32.619Z,2.47
2022-12-23T10:25:39.395Z,2.20
2022-12-23T10:28:06.270Z,2.00
2022-12-23T10:30:57.479Z,2.20
2022-12-23T10:33:29.112Z,1.85
2022-12-23T10:35:55.926Z,2.10
2022-12-23T10:38:28.688Z,2.00
2022-12-23T10:41:19.634Z,1.85
2022-12-23T10:43:58.565Z,1.90
2022-12-23T10:46:40.817Z,2.00
2022-12-23T10:49:30.436Z,1.83
2022-12-23T10:52:05.346Z,1.88
2022-12-23T10:54:33.547Z,1.83
2022-12-23T10:57:00.622Z,1.90
2022-12-23T10:59:29.532Z,1.90
2022-12-23T11:02:13.672Z,1.75
2022-12-23T11:04:45.936Z,2.00
2022-12-23T11:10:18.968Z,2.20
2022-12-23T11:12:48.453Z,1.88
2022-12-23T11:15:28.928Z,2.00
2022-12-23T11:18:00.705Z,1.85
2022-12-23T11:20:27.559Z,1.95
2022-12-23T11:22:56.121Z,1.95
2022-12-23T11:25:42.760Z,2.05
2022-12-23T11:28:16.762Z,1.70
2022-12-23T11:30:57.239Z,1.95
2022-12-23T11:33:29.042Z,1.77
2022-12-23T11:36:08.410Z,2.00
2022-12-23T11:38:36.303Z,1.70
2022-12-23T11:41:04.077Z,1.80
2022-12-23T11:43:30.921Z,1.85
2022-12-23T11:46:15.747Z,1.65
2022-12-23T11:51:09.359Z,2.03
2022-12-23T11:53:36.791Z,1.75
2022-12-23T11:56:10.283Z,1.80
2022-12-23T11:58:48.964Z,1.73
2022-12-23T12:01:21.633Z,1.80
2022-12-23T12:03:55.864Z,1.73
2022-12-23T12:06:22.807Z,1.70
2022-12-23T12:08:51.345Z,1.60
2022-12-23T12:11:19.684Z,1.60
2022-12-23T12:13:48.790Z,1.70
2022-12-23T12:16:27.431Z,1.52
2022-12-23T12:18:56.089Z,1.60
2022-12-23T12:21:24.994Z,1.48
2022-12-23T12:24:17.064Z,1.60
2022-12-23T12:26:45.092Z,1.63
2022-12-23T12:29:41.833Z,1.70
2022-12-23T12:32:38.819Z,1.75
2022-12-23T12:35:07.306Z,1.58
2022-12-23T12:37:59.557Z,1.60
2022-12-23T12:40:36.494Z,1.52
2022-12-23T12:43:21.271Z,1.60
2022-12-23T12:48:36.526Z,1.85
2022-12-23T12:51:17.277Z,2.00
2022-12-23T12:54:30.476Z,2.00
2022-12-23T12:56:58.103Z,2.08
2022-12-23T12:59:37.649Z,1.63
2022-12-23T13:02:26.173Z,1.80
2022-12-23T13:05:14.511Z,2.10
2022-12-23T13:07:52.237Z,2.00
2022-12-23T13:10:28.397Z,1.92
2022-12-23T13:13:04.318Z,2.00
2022-12-23T13:15:38.508Z,1.98
2022-12-23T13:18:11.118Z,2.00
2022-12-23T13:20:46.394Z,2.35
2022-12-23T13:23:45.220Z,1.85
2022-12-23T13:26:34.328Z,2.15
2022-12-23T13:29:33.696Z,2.30
2022-12-23T13:32:20.674Z,2.08
2022-12-23T13:35:04.018Z,2.15
2022-12-23T13:37:33.534Z,2.50
2022-12-23T13:40:18.893Z,2.30
2022-12-23T13:42:52.597Z,2.53
2022-12-23T13:45:19.741Z,2.70
2022-12-23T13:48:05.660Z,3.20
2022-12-23T13:50:57.211Z,2.90
2022-12-23T13:53:48.250Z,2.90
2022-12-23T13:56:18.182Z,3.08
2022-12-23T13:58:47.411Z,2.83
2022-12-23T14:01:14.192Z,2.60
2022-12-23T14:03:41.144Z,3.33
2022-12-23T14:06:40.526Z,2.80
2022-12-23T14:09:07.485Z,2.53
2022-12-23T14:11:34.322Z,3.22
2022-12-23T14:14:05.390Z,3.17
2022-12-23T14:16:50.522Z,2.88
2022-12-23T14:19:51.664Z,3.38
2022-12-23T14:22:24.791Z,3.25
2022-12-23T14:25:16.253Z,2.95
2022-12-23T14:27:55.737Z,3.33
2022-12-23T14:30:24.416Z,3.30
2022-12-23T14:32:52.342Z,3.28
2022-12-23T14:35:35.441Z,2.92
2022-12-23T14:38:15.861Z,3.83
2022-12-23T14:40:42.753Z,3.28
2022-12-23T14:43:23.405Z,3.30
2022-12-23T14:45:54.117Z,3.20
2022-12-23T14:48:36.958Z,3.17
2022-12-23T14:51:10.080Z,2.95
2022-12-23T14:53:38.169Z,3.42
2022-12-23T14:56:08.104Z,3.00
2022-12-23T14:58:47.213Z,3.90
2022-12-23T15:01:20.111Z,3.63
2022-12-23T15:03:49.177Z,3.35
2022-12-23T15:06:28.412Z,3.47
2022-12-23T15:08:55.414Z,3.45
2022-12-23T15:11:26.503Z,3.70
2022-12-23T15:13:53.440Z,3.30
2022-12-23T15:16:24.247Z,3.75
2022-12-23T15:18:58.981Z,3.42
2022-12-23T15:23:56.103Z,3.45
2022-12-23T15:26:26.020Z,3.50
2022-12-23T15:28:52.929Z,3.42
2022-12-23T15:31:39.372Z,3.53
2022-12-23T15:34:17.133Z,3.28
2022-12-23T15:36:44.559Z,3.40
2022-12-23T15:39:18.729Z,3.67
2022-12-23T15:41:46.082Z,3.92
2022-12-23T15:44:15.529Z,3.55
2022-12-23T15:46:42.461Z,3.30
2022-12-23T15:49:11.114Z,3.75
2022-12-23T15:54:31.343Z,3.72
2022-12-23T15:56:59.148Z,3.47
2022-12-23T15:59:36.863Z,3.70
2022-12-23T16:02:59.095Z,3.83
2022-12-23T16:05:12.411Z,3.85
2022-12-23T16:07:40.801Z,3.90
2022-12-23T16:10:16.664Z,3.95
2022-12-23T16:12:43.540Z,3.97
2022-12-23T16:15:30.936Z,4.28
2022-12-23T16:18:19.360Z,4.03
2022-12-23T16:20:48.735Z,4.07
2022-12-23T16:23:15.593Z,4.28
2022-12-23T16:25:50.529Z,4.28
2022-12-23T16:28:28.023Z,4.70
2022-12-23T16:30:56.471Z,4.60
2022-12-23T16:33:37.048Z,4.85
2022-12-23T16:36:25.493Z,4.63
2022-12-23T16:38:53.552Z,4.57
2022-12-23T16:41:20.760Z,4.13
2022-12-23T16:43:52.515Z,4.68
2022-12-23T16:46:20.954Z,4.53
2022-12-23T16:49:05.140Z,4.38
2022-12-23T16:51:34.164Z,4.37
2022-12-23T16:54:01.636Z,4.20
2022-12-23T16:56:36.518Z,4.80
2022-12-23T16:59:03.902Z,4.25
2022-12-23T17:01:44.967Z,4.80
2022-12-23T17:04:12.151Z,4.30
2022-12-23T17:06:39.681Z,4.68
2022-12-23T17:09:07.834Z,4.75
2022-12-23T17:11:36.787Z,4.32
2022-12-23T17:14:07.972Z,4.40
2022-12-23T17:16:38.936Z,4.55
2022-12-23T17:19:05.876Z,4.47
2022-12-23T17:21:36.646Z,4.43
2022-12-23T17:24:14.428Z,4.70
2022-12-23T17:26:41.420Z,4.43
2022-12-23T17:29:09.790Z,4.20
2022-12-23T17:31:36.771Z,4.03
2022-12-23T17:34:03.883Z,4.72
2022-12-23T17:36:30.884Z,4.70
2022-12-23T17:38:57.838Z,4.20
2022-12-23T17:41:29.129Z,4.50
2022-12-23T17:43:56.043Z,4.28
2022-12-23T17:46:23.282Z,4.18
2022-12-23T17:48:50.273Z,4.40
2022-12-23T17:51:19.067Z,4.40
2022-12-23T17:53:47.444Z,4.28
2022-12-23T17:56:19.390Z,4.00
2022-12-23T17:58:47.228Z,4.30
2022-12-23T18:01:19.944Z,4.45
2022-12-23T18:03:47.040Z,4.25
2022-12-23T18:06:14.944Z,4.22
2022-12-23T18:08:41.806Z,4.20
2022-12-23T18:11:09.079Z,4.10
2022-12-23T18:13:36.328Z,4.28
2022-12-23T18:16:03.309Z,4.50
2022-12-23T18:18:39.269Z,4.72
2022-12-23T18:21:13.100Z,4.78
2022-12-23T18:23:40.004Z,4.40
2022-12-23T18:26:06.885Z,4.68
2022-12-23T18:28:33.790Z,4.30
2022-12-23T18:31:00.679Z,4.28
2022-12-23T18:33:29.423Z,4.28
2022-12-23T18:35:56.427Z,4.60
2022-12-23T18:38:23.311Z,5.13
2022-12-23T18:40:53.897Z,4.80
2022-12-23T18:43:24.317Z,5.07
2022-12-23T18:45:53.636Z,4.57
2022-12-23T18:48:21.573Z,4.70
2022-12-23T18:50:48.620Z,4.68
2022-12-23T18:53:23.381Z,4.72
2022-12-23T18:55:51.118Z,5.15
2022-12-23T18:58:18.116Z,4.35
2022-12-23T19:00:45.018Z,4.97
2022-12-23T19:03:25.782Z,4.90
2022-12-23T19:05:53.235Z,5.32
2022-12-23T19:08:26.107Z,5.38
2022-12-23T19:10:54.425Z,4.80
2022-12-23T19:13:21.333Z,5.40
2022-12-23T19:15:48.258Z,5.07
2022-12-23T19:18:16.431Z,5.10
2022-12-23T19:20:44.102Z,4.85
2022-12-23T19:23:11.014Z,5.32
2022-12-23T19:25:40.986Z,5.38
2022-12-23T19:28:08.186Z,5.22
2022-12-23T19:30:35.110Z,5.80
2022-12-23T19:33:02.032Z,5.50
2022-12-23T19:35:28.892Z,5.93
2022-12-23T19:37:55.845Z,5.40
2022-12-23T19:40:22.704Z,5.75
2022-12-23T19:42:49.541Z,5.63
2022-12-23T19:45:17.174Z,5.78
2022-12-23T19:47:44.121Z,5.95
2022-12-23T19:50:11.253Z,5.63
2022-12-23T19:52:38.083Z,5.32
2022-12-23T19:55:05.477Z,5.60
2022-12-23T19:57:33.374Z,6.13
2022-12-23T20:00:01.847Z,5.70
2022-12-23T20:02:38.986Z,5.90
2022-12-23T20:05:06.170Z,5.80
2022-12-23T20:07:35.299Z,6.00
2022-12-23T20:10:02.594Z,5.57
2022-12-23T20:12:29.419Z,6.50
2022-12-23T20:14:56.270Z,6.32
2022-12-23T20:17:23.169Z,6.13
2022-12-23T20:19:49.995Z,6.28
2022-12-23T20:22:16.880Z,6.30
2022-12-23T20:24:43.820Z,6.57
2022-12-23T20:27:12.100Z,6.50
2022-12-23T20:29:40.084Z,6.20
2022-12-23T20:32:06.956Z,6.35
2022-12-23T20:34:39.157Z,6.63
2022-12-23T20:37:06.716Z,6.57
2022-12-23T20:39:33.581Z,6.80
2022-12-23T20:42:00.456Z,6.57
2022-12-23T20:44:36.645Z,6.93
2022-12-23T20:47:05.574Z,7.07
2022-12-23T20:49:32.665Z,6.53
2022-12-23T20:51:59.664Z,6.68
2022-12-23T20:54:32.039Z,7.15
2022-12-23T20:56:59.961Z,6.60
2022-12-23T20:59:26.851Z,7.10
2022-12-23T21:01:55.317Z,6.60
2022-12-23T21:04:22.798Z,6.22
2022-12-23T21:06:49.742Z,7.10
2022-12-23T21:09:17.037Z,6.50
2022-12-23T21:11:45.254Z,7.15
2022-12-23T21:14:12.139Z,7.10
2022-12-23T21:16:39.165Z,6.93
2022-12-23T21:19:07.298Z,7.05
2022-12-23T21:21:34.205Z,6.60
2022-12-23T21:24:02.159Z,7.15
2022-12-23T21:26:29.855Z,7.20
2022-12-23T21:29:00.878Z,7.15
2022-12-23T21:31:28.947Z,6.90
2022-12-23T21:33:55.871Z,6.88
2022-12-23T21:36:24.329Z,6.68
2022-12-23T21:38:51.443Z,6.75
2022-12-23T21:41:23.002Z,7.43
2022-12-23T21:43:50.095Z,6.93
2022-12-23T21:46:18.626Z,7.15
2022-12-23T21:48:45.688Z,7.13
2022-12-23T21:51:13.385Z,7.45
2022-12-23T21:53:40.699Z,6.82
2022-12-23T21:56:12.109Z,7.53
2022-12-23T21:58:39.222Z,7.65
2022-12-23T22:01:10.035Z,7.07
2022-12-23T22:03:37.046Z,7.35
2022-12-23T22:06:10.962Z,7.65
2022-12-23T22:08:39.003Z,7.03
2022-12-23T22:11:16.553Z,6.72
2022-12-23T22:13:43.703Z,7.05
2022-12-23T22:16:16.136Z,6.95
2022-12-23T22:18:43.122Z,7.50
2022-12-23T22:21:11.941Z,7.15
2022-12-23T22:23:38.878Z,6.75
2022-12-23T22:26:06.096Z,7.25
2022-12-23T22:28:33.604Z,7.15
2022-12-23T22:31:24.421Z,6.93
2022-12-23T22:33:51.385Z,7.45
2022-12-23T22:36:18.271Z,6.97
2022-12-23T22:38:50.456Z,7.35
2022-12-23T22:41:17.401Z,7.20
2022-12-23T22:43:44.217Z,7.32
2022-12-23T22:46:11.162Z,6.65
2022-12-23T22:48:38.302Z,6.65
2022-12-23T22:51:14.623Z,6.63
2022-12-23T22:53:41.572Z,6.82
2022-12-23T22:56:08.658Z,6.25
2022-12-23T22:58:35.479Z,6.90
2022-12-23T23:01:02.400Z,6.72
2022-12-23T23:03:29.710Z,6.53
2022-12-23T23:06:00.911Z,6.60
2022-12-23T23:08:28.584Z,6.63
2022-12-23T23:10:57.056Z,6.75
2022-12-23T23:13:25.292Z,6.68
2022-12-23T23:15:52.350Z,6.13
2022-12-23T23:18:19.165Z,6.50
2022-12-23T23:20:45.991Z,6.32
2022-12-23T23:23:12.959Z,6.10
2022-12-23T23:25:39.872Z,5.82
2022-12-23T23:28:06.732Z,6.38
2022-12-23T23:30:33.820Z,6.53
2022-12-23T23:33:00.663Z,6.35
2022-12-23T23:35:27.527Z,6.63
2022-12-23T23:37:54.423Z,6.18
2022-12-23T23:40:21.285Z,6.07
2022-12-23T23:42:48.169Z,5.93
2022-12-23T23:45:15.101Z,6.30
2022-12-23T23:47:41.954Z,6.35
2022-12-23T23:50:09.430Z,5.82
2022-12-23T23:52:36.337Z,6.28
2022-12-23T23:55:03.211Z,5.55
2022-12-23T23:57:30.139Z,5.95
2022-12-23T23:59:57.014Z,6.25
